createdAt,value
2023-04-02T11:08:39.967Z,101925.47
2023-04-02T11:11:13.345Z,101931.53
2023-04-02T11:13:52.292Z,101929.66
2023-04-02T11:16:21.190Z,101937.38
2023-04-02T11:21:54.918Z,101939.03
2023-04-02T11:24:37.392Z,101938.09
2023-04-02T11:27:06.853Z,101954.53
2023-04-02T11:29:37.632Z,101955.25
2023-04-02T11:32:29.104Z,101955.84
2023-04-02T11:35:17.284Z,101966.28
2023-04-02T11:37:47.937Z,101961.78
2023-04-02T11:40:53.041Z,101967.66
2023-04-02T11:43:52.129Z,101969.22
2023-04-02T11:46:48.845Z,101968.34
2023-04-02T11:49:40.840Z,101957.19
2023-04-02T11:52:24.932Z,101963.41
2023-04-02T11:55:06.916Z,101966.28
2023-04-02T11:57:47.350Z,101961.22
2023-04-02T12:00:28.943Z,101975.16
2023-04-02T12:03:17.252Z,101988.41
2023-04-02T12:05:54.669Z,101975.09
2023-04-02T12:08:29.075Z,101971.72
2023-04-02T12:11:02.336Z,101975.97
2023-04-02T12:13:53.385Z,101998.63
2023-04-02T12:16:24.389Z,102006.47
2023-04-02T12:18:55.137Z,101996.75
2023-04-02T12:21:25.441Z,102005.38
2023-04-02T12:23:55.976Z,101997.34
2023-04-02T12:26:32.071Z,102001.63
2023-04-02T12:29:25.534Z,102007.66
2023-04-02T12:31:56.786Z,101995.44
2023-04-02T12:34:26.931Z,102010.16
2023-04-02T12:36:57.296Z,102007.50
2023-04-02T12:39:28.356Z,102013.66
2023-04-02T12:41:57.200Z,102012.72
2023-04-02T12:44:27.805Z,102003.06
2023-04-02T12:46:58.943Z,102002.16
2023-04-02T12:49:35.065Z,102015.28
2023-04-02T12:52:05.709Z,102019.75
2023-04-02T12:54:38.002Z,102025.13
2023-04-02T12:57:33.281Z,102045.22
2023-04-02T13:00:06.075Z,102030.25
2023-04-02T13:02:45.613Z,102036.09
2023-04-02T13:05:13.816Z,102063.13
2023-04-02T13:07:48.587Z,102042.00
2023-04-02T13:10:26.301Z,102039.47
2023-04-02T13:12:56.802Z,102050.84
2023-04-02T13:15:28.472Z,102041.28
2023-04-02T13:18:19.498Z,102046.63
2023-04-02T13:20:58.303Z,102056.34
2023-04-02T13:23:34.521Z,102047.56
2023-04-02T13:26:11.309Z,102054.69
2023-04-02T13:28:39.972Z,102049.56
2023-04-02T13:31:14.485Z,102048.69
2023-04-02T13:33:44.000Z,102052.19
2023-04-02T13:36:14.884Z,102061.84
2023-04-02T13:38:43.463Z,102063.38
2023-04-02T13:41:22.478Z,102076.41
2023-04-02T13:43:51.970Z,102063.03
2023-04-02T13:46:26.534Z,102064.72
2023-04-02T13:48:57.401Z,102070.72
2023-04-02T13:51:32.953Z,102066.19
2023-04-02T13:54:01.142Z,102061.06
2023-04-02T13:56:29.556Z,102078.91
2023-04-02T13:58:57.588Z,102089.47
2023-04-02T14:01:27.309Z,102088.63
2023-04-02T14:03:58.160Z,102083.19
2023-04-02T14:06:36.312Z,102083.88
2023-04-02T14:09:10.578Z,102078.50
2023-04-02T14:11:50.153Z,102076.72
2023-04-02T14:14:25.461Z,102092.59
2023-04-02T14:17:06.704Z,102082.19
2023-04-02T14:19:58.496Z,102085.66
2023-04-02T14:22:39.092Z,102091.78
2023-04-02T14:25:18.231Z,102098.84
2023-04-02T14:27:53.681Z,102098.69
2023-04-02T14:30:27.560Z,102109.16
2023-04-02T14:33:05.392Z,102109.00
2023-04-02T14:35:38.468Z,102116.63
2023-04-02T14:38:15.567Z,102115.56
2023-04-02T14:40:49.680Z,102120.63
2023-04-02T14:43:23.835Z,102134.47
2023-04-02T14:45:59.965Z,102126.31
2023-04-02T14:48:46.304Z,102134.84
2023-04-02T14:51:23.753Z,102127.00
2023-04-02T14:53:59.858Z,102135.66
2023-04-02T14:56:28.706Z,102139.94
2023-04-02T14:59:10.257Z,102135.44
2023-04-02T15:01:43.950Z,102129.16
2023-04-02T15:04:18.319Z,102147.69
2023-04-02T15:06:52.524Z,102158.94
2023-04-02T15:09:28.417Z,102149.38
2023-04-02T15:12:00.910Z,102154.50
2023-04-02T15:14:36.129Z,102154.63
2023-04-02T15:17:04.395Z,102159.84
2023-04-02T15:19:32.529Z,102152.88
2023-04-02T15:22:27.810Z,102160.72
2023-04-02T15:25:07.957Z,102150.16
2023-04-02T15:27:55.717Z,102151.88
2023-04-02T15:30:28.862Z,102164.09
2023-04-02T15:33:00.549Z,102171.00
2023-04-02T15:35:37.807Z,102165.56
2023-04-02T15:38:13.060Z,102173.25
2023-04-02T15:40:55.925Z,102199.38
2023-04-02T15:43:30.412Z,102181.72
2023-04-02T15:46:13.398Z,102189.44
2023-04-02T15:48:57.512Z,102186.72
2023-04-02T15:51:40.012Z,102182.19
2023-04-02T15:54:22.914Z,102189.03
2023-04-02T15:56:59.463Z,102189.78
2023-04-02T15:59:53.445Z,102199.41
2023-04-02T16:02:40.620Z,102200.16
2023-04-02T16:05:18.144Z,102202.69
2023-04-02T16:08:09.220Z,102212.22
2023-04-02T16:10:42.522Z,102199.03
2023-04-02T16:13:19.199Z,102218.19
2023-04-02T16:15:53.591Z,102203.31
2023-04-02T16:18:34.023Z,102210.28
2023-04-02T16:21:03.905Z,102212.78
2023-04-02T16:23:36.268Z,102211.91
2023-04-02T16:26:24.585Z,102212.72
2023-04-02T16:29:03.892Z,102220.69
2023-04-02T16:31:39.984Z,102218.19
2023-04-02T16:34:16.016Z,102230.56
2023-04-02T16:36:54.743Z,102240.13
2023-04-02T16:39:33.222Z,102221.75
2023-04-02T16:42:11.944Z,102232.28
2023-04-02T16:44:56.571Z,102237.59
2023-04-02T16:48:03.272Z,102229.84
2023-04-02T16:50:41.879Z,102234.88
2023-04-02T16:53:23.902Z,102234.91
2023-04-02T16:56:08.410Z,102227.13
2023-04-02T16:58:49.408Z,102253.41
2023-04-02T17:01:27.048Z,102249.03
2023-04-02T17:04:09.016Z,102251.38
2023-04-02T17:06:43.335Z,102259.28
2023-04-02T17:09:18.020Z,102258.44
2023-04-02T17:11:50.739Z,102262.84
2023-04-02T17:14:26.895Z,102269.03
2023-04-02T17:17:00.033Z,102269.81
2023-04-02T17:19:29.932Z,102260.25
2023-04-02T17:22:00.614Z,102261.94
2023-04-02T17:24:31.869Z,102282.88
2023-04-02T17:27:05.100Z,102279.19
2023-04-02T17:29:38.823Z,102296.72
2023-04-02T17:32:17.627Z,102275.66
2023-04-02T17:34:45.755Z,102306.00
2023-04-02T17:37:25.384Z,102287.50
2023-04-02T17:39:57.494Z,102290.13
2023-04-02T17:42:39.160Z,102284.88
2023-04-02T17:45:16.604Z,102301.19
2023-04-02T17:47:52.986Z,102278.50
2023-04-02T17:50:47.713Z,102305.53
2023-04-02T17:53:29.448Z,102308.84
2023-04-02T17:56:06.882Z,102297.50
2023-04-02T17:58:54.843Z,102298.34
2023-04-02T18:01:32.176Z,102305.19
2023-04-02T18:04:10.850Z,102313.06
2023-04-02T18:06:47.912Z,102306.28
2023-04-02T18:09:31.328Z,102315.53
2023-04-02T18:12:11.370Z,102325.03
2023-04-02T18:14:53.233Z,102338.88
2023-04-02T18:17:33.853Z,102348.44
2023-04-02T18:20:09.756Z,102326.44
2023-04-02T18:22:45.710Z,102317.81
2023-04-02T18:25:26.288Z,102328.97
2023-04-02T18:28:13.673Z,102325.25
2023-04-02T18:30:51.212Z,102324.25
2023-04-02T18:33:35.146Z,102333.78
2023-04-02T18:36:11.124Z,102332.91
2023-04-02T18:38:47.384Z,102328.34
2023-04-02T18:41:31.492Z,102329.22
2023-04-02T18:44:12.963Z,102333.56
2023-04-02T18:46:48.949Z,102328.34
2023-04-02T18:49:28.726Z,102325.75
2023-04-02T18:52:01.808Z,102312.69
2023-04-02T18:54:33.957Z,102323.25
2023-04-02T18:57:03.901Z,102319.00
2023-04-02T18:59:39.337Z,102323.41
2023-04-02T19:02:25.592Z,102317.47
2023-04-02T19:05:02.655Z,102319.22
2023-04-02T19:07:37.136Z,102310.69
2023-04-02T19:10:15.141Z,102318.50
2023-04-02T19:12:43.186Z,102309.78
2023-04-02T19:15:21.396Z,102322.91
2023-04-02T19:17:58.666Z,102318.50
2023-04-02T19:20:39.043Z,102314.06
2023-04-02T19:23:18.886Z,102321.00
2023-04-02T19:25:57.015Z,102316.59
2023-04-02T19:28:32.468Z,102329.53
2023-04-02T19:31:18.596Z,102323.25
2023-04-02T19:33:51.313Z,102334.28
2023-04-02T19:36:43.060Z,102327.03
2023-04-02T19:39:39.642Z,102327.72
2023-04-02T19:42:19.778Z,102317.88
2023-04-02T19:44:51.264Z,102340.44
2023-04-02T19:47:20.065Z,102319.03
2023-04-02T19:49:48.248Z,102328.78
2023-04-02T19:52:18.043Z,102328.59
2023-04-02T19:54:46.234Z,102318.97
2023-04-02T19:57:16.643Z,102328.44
2023-04-02T19:59:45.194Z,102328.44
2023-04-02T20:02:13.366Z,102335.38
2023-04-02T20:04:42.496Z,102337.09
2023-04-02T20:07:10.535Z,102327.59
2023-04-02T20:09:39.920Z,102376.50
2023-04-02T20:12:08.058Z,102351.09
2023-04-02T20:14:36.275Z,102336.22
2023-04-02T20:17:04.459Z,102354.38
2023-04-02T20:19:32.621Z,102342.94
2023-04-02T20:22:00.700Z,102331.56
2023-04-02T20:24:28.787Z,102341.03
2023-04-02T20:26:58.287Z,102360.94
2023-04-02T20:29:29.477Z,102352.16
2023-04-02T20:31:57.776Z,102353.75
2023-04-02T20:34:26.599Z,102336.09
2023-04-02T20:36:54.867Z,102351.03
2023-04-02T20:39:23.046Z,102354.25
2023-04-02T20:41:51.292Z,102354.38
2023-04-02T20:44:21.774Z,102358.81
2023-04-02T20:46:49.998Z,102354.38
2023-04-02T20:49:18.169Z,102343.97
2023-04-02T20:51:47.893Z,102346.66
2023-04-02T20:54:16.711Z,102348.38
2023-04-02T20:56:44.993Z,102359.69
2023-04-02T20:59:13.065Z,102352.03
2023-04-02T21:01:42.688Z,102345.81
2023-04-02T21:04:11.219Z,102345.91
2023-04-02T21:06:40.824Z,102347.38
2023-04-02T21:09:14.527Z,102356.91
2023-04-02T21:11:43.712Z,102370.78
2023-04-02T21:14:12.311Z,102357.81
2023-04-02T21:16:42.564Z,102380.34
2023-04-02T21:19:11.768Z,102374.97
2023-04-02T21:21:40.478Z,102365.75
2023-04-02T21:24:10.456Z,102376.06
2023-04-02T21:26:40.378Z,102374.13
2023-04-02T21:29:09.551Z,102381.69
2023-04-02T21:31:39.413Z,102377.78
2023-04-02T21:34:10.701Z,102377.78
2023-04-02T21:36:42.472Z,102384.56
2023-04-02T21:39:12.788Z,102383.41
2023-04-02T21:41:43.929Z,102389.53
2023-04-02T21:44:15.880Z,102385.94
2023-04-02T21:46:46.348Z,102392.63
2023-04-02T21:49:18.129Z,102371.59
2023-04-02T21:51:48.752Z,102381.94
2023-04-02T21:54:16.939Z,102386.09
2023-04-02T21:56:46.795Z,102396.38
2023-04-02T21:59:17.024Z,102380.53
2023-04-02T22:01:47.032Z,102387.47
2023-04-02T22:04:19.121Z,102390.00
2023-04-02T22:06:48.613Z,102398.69
2023-04-02T22:09:18.786Z,102392.50
2023-04-02T22:11:49.125Z,102384.69
2023-04-02T22:14:17.921Z,102395.09
2023-04-02T22:16:46.251Z,102385.56
2023-04-02T22:19:17.672Z,102406.44
2023-04-02T22:21:46.295Z,102377.56
2023-04-02T22:24:16.440Z,102398.28
2023-04-02T22:26:45.823Z,102390.13
2023-04-02T22:29:13.987Z,102388.22
2023-04-02T22:31:42.006Z,102399.41
2023-04-02T22:34:10.334Z,102401.06
2023-04-02T22:36:39.879Z,102404.34
2023-04-02T22:39:10.502Z,102406.50
2023-04-02T22:41:38.758Z,102402.19
2023-04-02T22:44:07.065Z,102405.69
2023-04-02T22:46:35.717Z,102415.00
2023-04-02T22:49:04.551Z,102415.00
2023-04-02T22:51:32.643Z,102398.59
2023-04-02T22:54:02.156Z,102409.91
2023-04-02T22:56:32.149Z,102380.25
2023-04-02T22:59:00.842Z,102397.59
2023-04-02T23:01:30.718Z,102401.13
2023-04-02T23:03:58.839Z,102400.28
2023-04-02T23:06:27.424Z,102402.19
2023-04-02T23:08:55.645Z,102409.91
2023-04-02T23:11:27.806Z,102397.72
2023-04-02T23:13:57.817Z,102396.81
2023-04-02T23:16:27.728Z,102404.44
2023-04-02T23:18:56.133Z,102407.88
2023-04-02T23:21:24.765Z,102406.16
2023-04-02T23:23:53.069Z,102396.38
2023-04-02T23:26:22.909Z,102406.78
2023-04-02T23:28:52.423Z,102396.28
2023-04-02T23:31:22.494Z,102396.38
2023-04-02T23:33:51.202Z,102398.00
2023-04-02T23:36:21.806Z,102405.19
2023-04-02T23:38:49.915Z,102411.09
2023-04-02T23:41:18.367Z,102399.97
2023-04-02T23:43:46.611Z,102411.28
2023-04-02T23:46:16.064Z,102402.53
2023-04-02T23:48:44.554Z,102412.97
2023-04-02T23:51:12.986Z,102405.81
2023-04-02T23:53:41.310Z,102410.09
2023-04-02T23:56:11.002Z,102416.09
2023-04-02T23:58:39.247Z,102398.44
